Time;durP1;ratioP1;P1;durP2;ratioP2;P2;SDS_P1;SDS_P2;PMS_P1;PMS_P2;Temp;Humidity;BMP_temperature;BMP_pressure;BME280_temperature;BME280_humidity;BME280_pressure;Samples;Min_cycle;Max_cycle;Signal;HPM_P1;HPM_P2
2023/04/23 00:01:25;;;;;;;;;;;17.10;99.90;;;;;;5014145;28;19995;-72
2023/04/23 00:03:52;;;;;;;;;;;17.10;99.90;;;;;;5015146;28;19916;-73
2023/04/23 00:06:18;;;;;;;;;;;17.10;99.90;;;;;;5013300;28;19956;-72
2023/04/23 00:08:44;;;;;;;;;;;17.10;99.90;;;;;;5017776;28;20397;-71
2023/04/23 00:11:10;;;;;;;;;;;17.00;99.90;;;;;;5015325;28;19921;-70
2023/04/23 00:13:35;;;;;;;;;;;17.00;99.90;;;;;;5016823;28;19916;-70
2023/04/23 00:16:01;;;;;;;;;;;17.00;99.90;;;;;;5014505;28;20654;-70
2023/04/23 00:18:28;;;;;;;;;;;17.00;99.90;;;;;;5015154;28;19916;-71
2023/04/23 00:20:54;;;;;;;;;;;17.00;99.90;;;;;;5015813;28;19917;-71
2023/04/23 00:23:19;;;;;;;;;;;17.00;99.90;;;;;;4996113;28;20766;-70
2023/04/23 00:25:45;;;;;;;;;;;17.00;99.90;;;;;;5014119;28;20023;-71
2023/04/23 00:28:11;;;;;;;;;;;16.90;99.90;;;;;;5013375;28;19909;-71
2023/04/23 00:30:36;;;;;;;;;;;16.90;99.90;;;;;;5015219;28;20510;-71
2023/04/23 00:33:02;;;;;;;;;;;16.90;99.90;;;;;;5013835;28;19912;-71
2023/04/23 00:35:29;;;;;;;;;;;16.90;99.90;;;;;;5012355;28;20485;-71
2023/04/23 00:37:54;;;;;;;;;;;16.90;99.90;;;;;;5012684;28;19957;-73
2023/04/23 00:40:20;;;;;;;;;;;16.80;99.90;;;;;;5045649;28;20010;-71
2023/04/23 00:42:47;;;;;;;;;;;16.80;99.90;;;;;;5045196;28;19924;-72
2023/04/23 00:45:13;;;;;;;;;;;16.80;99.90;;;;;;5012559;28;19913;-73
2023/04/23 00:47:39;;;;;;;;;;;16.70;99.90;;;;;;5013005;28;19917;-72
2023/04/23 00:50:05;;;;;;;;;;;16.70;99.90;;;;;;5016030;28;19909;-71
2023/04/23 00:52:31;;;;;;;;;;;16.70;99.90;;;;;;5042704;28;19921;-73
2023/04/23 00:54:56;;;;;;;;;;;16.60;99.90;;;;;;5013710;28;20396;-72
2023/04/23 00:57:22;;;;;;;;;;;16.60;99.90;;;;;;5013369;28;19913;-71
2023/04/23 00:59:48;;;;;;;;;;;16.60;99.90;;;;;;5014363;28;19952;-73
2023/04/23 01:02:14;;;;;;;;;;;16.50;99.90;;;;;;5012984;28;20036;-72
2023/04/23 01:04:42;;;;;;;;;;;16.50;99.90;;;;;;5009174;28;20471;-71
2023/04/23 01:07:07;;;;;;;;;;;16.40;99.90;;;;;;5014467;28;19920;-71
2023/04/23 01:09:33;;;;;;;;;;;16.30;99.90;;;;;;5009851;28;19909;-76
2023/04/23 01:12:01;;;;;;;;;;;16.30;99.90;;;;;;5012380;28;19924;-73
2023/04/23 01:14:27;;;;;;;;;;;16.30;99.90;;;;;;5013762;28;20021;-72
2023/04/23 01:16:52;;;;;;;;;;;16.30;99.90;;;;;;5013441;28;19959;-72
2023/04/23 01:19:18;;;;;;;;;;;16.30;99.90;;;;;;5014915;28;20394;-72
2023/04/23 01:21:44;;;;;;;;;;;16.30;99.90;;;;;;5007202;28;19917;-72
2023/04/23 01:24:11;;;;;;;;;;;16.30;99.90;;;;;;5013551;28;20305;-72
2023/04/23 01:26:37;;;;;;;;;;;16.30;99.90;;;;;;5011318;28;20381;-73
2023/04/23 01:29:03;;;;;;;;;;;16.30;99.90;;;;;;5013304;28;19909;-71
2023/04/23 01:31:29;;;;;;;;;;;16.30;99.90;;;;;;5013093;28;19909;-72
2023/04/23 01:33:56;;;;;;;;;;;16.30;99.90;;;;;;5013228;28;19909;-72
2023/04/23 01:36:25;;;;;;;;;;;16.30;99.90;;;;;;5028758;28;20369;-72
2023/04/23 01:38:52;;;;;;;;;;;16.30;99.90;;;;;;5012372;28;19920;-73
2023/04/23 01:41:18;;;;;;;;;;;16.20;99.90;;;;;;5012196;28;19909;-70
2023/04/23 01:43:44;;;;;;;;;;;16.20;99.90;;;;;;5015303;28;19910;-72
2023/04/23 01:46:12;;;;;;;;;;;16.20;99.90;;;;;;5010904;28;19918;-72
2023/04/23 01:48:37;;;;;;;;;;;16.10;99.90;;;;;;5011805;28;19920;-73
2023/04/23 01:51:03;;;;;;;;;;;16.10;99.90;;;;;;5010779;28;19917;-73
2023/04/23 01:53:29;;;;;;;;;;;16.10;99.90;;;;;;5010627;28;20357;-72
2023/04/23 01:55:55;;;;;;;;;;;16.10;99.90;;;;;;5013258;28;19913;-73
2023/04/23 01:58:22;;;;;;;;;;;16.00;99.90;;;;;;5009075;28;19920;-72
2023/04/23 02:00:48;;;;;;;;;;;15.80;99.90;;;;;;5011149;28;19930;-72
2023/04/23 02:03:13;;;;;;;;;;;15.40;99.90;;;;;;5013626;28;19917;-73
2023/04/23 02:05:40;;;;;;;;;;;15.20;99.90;;;;;;5011405;28;19921;-71
2023/04/23 02:08:06;;;;;;;;;;;14.90;99.90;;;;;;5013513;28;20484;-72
2023/04/23 02:10:31;;;;;;;;;;;14.80;99.90;;;;;;5008807;28;20376;-72
2023/04/23 02:12:58;;;;;;;;;;;14.60;99.90;;;;;;5012870;28;19918;-70
2023/04/23 02:15:24;;;;;;;;;;;14.50;99.90;;;;;;5011264;28;19906;-70
2023/04/23 02:17:51;;;;;;;;;;;14.50;99.90;;;;;;5011078;28;19940;-72
2023/04/23 02:20:17;;;;;;;;;;;14.40;99.90;;;;;;5012708;28;19905;-72
2023/04/23 02:22:42;;;;;;;;;;;14.30;99.90;;;;;;5012210;28;19963;-71
2023/04/23 02:25:08;;;;;;;;;;;14.10;99.90;;;;;;4996478;28;19913;-70
2023/04/23 02:27:34;;;;;;;;;;;14.00;99.90;;;;;;5009566;28;19932;-71
2023/04/23 02:30:00;;;;;;;;;;;14.00;99.90;;;;;;5013154;28;19921;-71
2023/04/23 02:32:26;;;;;;;;;;;14.00;99.90;;;;;;5013006;28;19914;-74
2023/04/23 02:34:52;;;;;;;;;;;13.70;99.90;;;;;;5012449;28;19913;-72
2023/04/23 02:37:18;;;;;;;;;;;13.60;99.90;;;;;;5012566;28;19909;-71
2023/04/23 02:39:44;;;;;;;;;;;13.50;99.90;;;;;;5014148;28;19959;-71
2023/04/23 02:42:10;;;;;;;;;;;13.50;99.90;;;;;;5011935;28;19955;-71
2023/04/23 02:44:35;;;;;;;;;;;13.50;99.90;;;;;;5012529;28;19918;-73
2023/04/23 02:47:01;;;;;;;;;;;13.50;99.90;;;;;;5026039;28;19960;-71
2023/04/23 02:49:28;;;;;;;;;;;13.70;99.90;;;;;;5012626;28;19914;-71
2023/04/23 02:51:54;;;;;;;;;;;13.60;99.90;;;;;;5014183;28;19913;-73
2023/04/23 02:54:20;;;;;;;;;;;13.60;99.90;;;;;;4997027;28;20371;-71
2023/04/23 02:56:45;;;;;;;;;;;13.60;99.90;;;;;;5012168;28;20003;-71
2023/04/23 02:59:11;;;;;;;;;;;13.50;99.90;;;;;;5005982;28;19913;-74
2023/04/23 03:01:37;;;;;;;;;;;13.50;99.90;;;;;;5008698;28;19920;-72
2023/04/23 03:04:02;;;;;;;;;;;13.40;99.90;;;;;;5016246;28;19916;-71
2023/04/23 03:06:30;;;;;;;;;;;13.30;99.90;;;;;;5007414;28;20075;-73
2023/04/23 03:08:56;;;;;;;;;;;13.30;99.90;;;;;;5013895;28;19983;-71
2023/04/23 03:11:21;;;;;;;;;;;13.30;99.90;;;;;;5012739;28;19917;-72
2023/04/23 03:13:47;;;;;;;;;;;13.20;99.90;;;;;;5011260;28;19909;-74
2023/04/23 03:16:13;;;;;;;;;;;13.10;99.90;;;;;;5011340;28;20278;-71
2023/04/23 03:18:38;;;;;;;;;;;13.10;99.90;;;;;;5010990;28;19913;-71
2023/04/23 03:21:04;;;;;;;;;;;13.00;99.90;;;;;;5010122;28;19955;-71
2023/04/23 03:23:30;;;;;;;;;;;13.10;99.90;;;;;;5010209;28;19917;-71
2023/04/23 03:25:55;;;;;;;;;;;13.00;99.90;;;;;;5007851;28;19921;-71
2023/04/23 03:28:23;;;;;;;;;;;12.80;99.90;;;;;;5012731;28;19960;-71
2023/04/23 03:30:48;;;;;;;;;;;12.80;99.90;;;;;;5011893;28;20444;-70
2023/04/23 03:33:14;;;;;;;;;;;12.90;99.90;;;;;;5017946;28;19992;-71
2023/04/23 03:35:40;;;;;;;;;;;12.80;99.90;;;;;;5014208;28;19917;-71
2023/04/23 03:38:06;;;;;;;;;;;12.80;99.90;;;;;;5016636;28;19925;-72
2023/04/23 03:40:31;;;;;;;;;;;12.80;99.90;;;;;;5013390;28;19913;-71
2023/04/23 03:42:57;;;;;;;;;;;12.70;99.90;;;;;;5015549;28;19909;-71
2023/04/23 03:45:23;;;;;;;;;;;12.70;99.90;;;;;;5016684;28;19917;-71
2023/04/23 03:47:48;;;;;;;;;;;12.70;99.90;;;;;;5018561;28;20064;-71
2023/04/23 03:50:16;;;;;;;;;;;12.70;99.90;;;;;;5023159;28;19963;-72
2023/04/23 03:52:42;;;;;;;;;;;12.70;99.90;;;;;;5053027;28;19932;-71
2023/04/23 03:55:08;;;;;;;;;;;12.70;99.90;;;;;;5029058;28;19909;-72
2023/04/23 03:57:34;;;;;;;;;;;12.70;99.90;;;;;;5012931;28;19917;-72
2023/04/23 04:00:00;;;;;;;;;;;12.70;99.90;;;;;;5015079;28;20111;-71
2023/04/23 04:02:26;;;;;;;;;;;12.60;99.90;;;;;;5013709;28;20703;-71
2023/04/23 04:04:53;;;;;;;;;;;12.60;99.90;;;;;;5016889;28;19920;-71
2023/04/23 04:07:19;;;;;;;;;;;12.60;99.90;;;;;;5013482;28;19913;-70
2023/04/23 04:09:46;;;;;;;;;;;12.60;99.90;;;;;;5014210;28;19924;-70
2023/04/23 04:12:12;;;;;;;;;;;12.70;99.90;;;;;;5014494;28;19951;-71
2023/04/23 04:14:37;;;;;;;;;;;12.70;99.90;;;;;;5013993;28;19944;-71
2023/04/23 04:17:03;;;;;;;;;;;12.60;99.90;;;;;;5013830;28;19929;-71
2023/04/23 04:19:29;;;;;;;;;;;12.70;99.90;;;;;;5016979;28;19955;-71
2023/04/23 04:21:55;;;;;;;;;;;12.50;99.90;;;;;;5009950;28;19909;-72
2023/04/23 04:24:20;;;;;;;;;;;12.50;99.90;;;;;;5012636;28;20277;-71
2023/04/23 04:26:46;;;;;;;;;;;12.50;99.90;;;;;;5011545;28;20366;-71
2023/04/23 04:29:12;;;;;;;;;;;12.50;99.90;;;;;;5013519;28;19992;-71
2023/04/23 04:31:37;;;;;;;;;;;12.70;99.90;;;;;;5012259;28;20001;-71
2023/04/23 04:34:03;;;;;;;;;;;12.70;99.90;;;;;;5015720;28;20443;-72
2023/04/23 04:36:29;;;;;;;;;;;12.70;99.90;;;;;;5014201;28;19913;-71
2023/04/23 04:38:57;;;;;;;;;;;12.70;99.90;;;;;;5015750;28;19909;-72
2023/04/23 04:41:24;;;;;;;;;;;12.60;99.90;;;;;;5011711;28;19913;-72
2023/04/23 04:43:50;;;;;;;;;;;12.60;99.90;;;;;;5013062;28;19917;-71
2023/04/23 04:46:19;;;;;;;;;;;12.50;99.90;;;;;;5044002;28;19913;-72
2023/04/23 04:48:45;;;;;;;;;;;12.40;99.90;;;;;;5013872;28;19909;-72
2023/04/23 04:51:11;;;;;;;;;;;12.30;99.90;;;;;;5046201;28;19920;-72
2023/04/23 04:53:36;;;;;;;;;;;12.30;99.90;;;;;;5013558;28;19909;-71
2023/04/23 04:56:03;;;;;;;;;;;12.30;99.90;;;;;;5009233;28;19920;-72
2023/04/23 04:58:29;;;;;;;;;;;12.30;99.90;;;;;;5006821;28;19952;-73
2023/04/23 05:00:55;;;;;;;;;;;12.30;99.90;;;;;;5011005;28;20007;-71
2023/04/23 05:03:20;;;;;;;;;;;12.30;99.90;;;;;;5011214;28;19913;-73
2023/04/23 05:05:50;;;;;;;;;;;12.30;99.90;;;;;;5009633;28;19929;-72
2023/04/23 05:08:16;;;;;;;;;;;12.30;99.90;;;;;;5010822;28;19909;-73
2023/04/23 05:10:42;;;;;;;;;;;12.30;99.90;;;;;;5006566;28;19917;-72
2023/04/23 05:13:08;;;;;;;;;;;12.30;99.90;;;;;;5018062;28;20443;-72
2023/04/23 05:15:35;;;;;;;;;;;12.30;99.90;;;;;;5013569;28;19917;-73
2023/04/23 05:18:04;;;;;;;;;;;12.30;99.90;;;;;;5011417;28;20052;-73
2023/04/23 05:20:30;;;;;;;;;;;12.30;99.90;;;;;;5011441;28;19913;-71
2023/04/23 05:22:58;;;;;;;;;;;12.40;99.90;;;;;;5011765;28;19920;-73
2023/04/23 05:25:24;;;;;;;;;;;12.20;99.90;;;;;;5005252;28;20012;-73
2023/04/23 05:27:50;;;;;;;;;;;12.20;99.90;;;;;;5006693;28;19919;-72
2023/04/23 05:30:16;;;;;;;;;;;12.20;99.90;;;;;;5013310;28;19909;-72
2023/04/23 05:32:42;;;;;;;;;;;12.20;99.90;;;;;;5016578;28;20379;-71
2023/04/23 05:35:07;;;;;;;;;;;12.10;99.90;;;;;;5022779;28;19963;-72
2023/04/23 05:37:33;;;;;;;;;;;12.20;99.90;;;;;;5019149;28;19917;-71
2023/04/23 05:39:59;;;;;;;;;;;12.50;99.90;;;;;;5011162;28;20470;-71
2023/04/23 05:42:24;;;;;;;;;;;12.30;99.90;;;;;;5013837;28;20369;-71
2023/04/23 05:44:50;;;;;;;;;;;12.20;99.90;;;;;;5046662;28;19917;-70
2023/04/23 05:47:16;;;;;;;;;;;12.20;99.90;;;;;;5015624;28;19913;-72
2023/04/23 05:49:41;;;;;;;;;;;12.20;99.90;;;;;;5013699;28;19913;-70
2023/04/23 05:52:07;;;;;;;;;;;12.20;99.90;;;;;;5015198;28;19913;-72
2023/04/23 05:54:33;;;;;;;;;;;12.40;99.90;;;;;;5014349;28;20407;-72
2023/04/23 05:56:59;;;;;;;;;;;12.30;99.90;;;;;;5007126;28;20020;-72
2023/04/23 05:59:25;;;;;;;;;;;12.20;99.90;;;;;;5011497;28;19960;-74
2023/04/23 06:01:51;;;;;;;;;;;12.30;99.90;;;;;;5009516;28;19921;-72
2023/04/23 06:04:16;;;;;;;;;;;12.30;99.90;;;;;;5014491;28;19960;-71
2023/04/23 06:06:42;;;;;;;;;;;12.30;99.90;;;;;;5013669;28;19983;-71
2023/04/23 06:09:08;;;;;;;;;;;12.10;99.90;;;;;;4993382;28;19959;-71
2023/04/23 06:11:34;;;;;;;;;;;12.20;99.90;;;;;;5011798;28;19913;-71
2023/04/23 06:14:02;;;;;;;;;;;12.20;99.90;;;;;;5013078;28;19971;-71
2023/04/23 06:16:27;;;;;;;;;;;12.10;99.90;;;;;;5011927;28;19948;-71
2023/04/23 06:18:55;;;;;;;;;;;12.00;99.90;;;;;;5045304;28;19963;-72
2023/04/23 06:21:21;;;;;;;;;;;12.10;99.90;;;;;;5010897;28;20016;-72
2023/04/23 06:23:46;;;;;;;;;;;12.20;99.90;;;;;;5012290;28;19913;-72
2023/04/23 06:26:12;;;;;;;;;;;12.10;99.90;;;;;;5011657;28;19924;-71
2023/04/23 06:28:40;;;;;;;;;;;12.20;99.90;;;;;;5007407;28;20293;-72
2023/04/23 06:31:07;;;;;;;;;;;12.10;99.90;;;;;;5012286;28;19985;-72
2023/04/23 06:33:33;;;;;;;;;;;12.20;99.90;;;;;;4996414;28;19910;-72
2023/04/23 06:35:59;;;;;;;;;;;12.30;99.90;;;;;;5012637;28;20381;-71
2023/04/23 06:38:25;;;;;;;;;;;12.40;99.90;;;;;;5042892;28;19921;-73
2023/04/23 06:40:51;;;;;;;;;;;12.40;99.90;;;;;;5011108;28;19920;-72
2023/04/23 06:43:16;;;;;;;;;;;12.40;99.90;;;;;;5013030;28;19952;-71
2023/04/23 06:45:42;;;;;;;;;;;12.40;99.90;;;;;;5013001;28;19924;-72
2023/04/23 06:48:08;;;;;;;;;;;12.40;99.90;;;;;;5013950;28;19920;-74
2023/04/23 06:50:33;;;;;;;;;;;12.40;99.90;;;;;;5015639;28;19909;-73
2023/04/23 06:52:59;;;;;;;;;;;12.40;99.90;;;;;;5012901;28;20834;-72
2023/04/23 06:55:27;;;;;;;;;;;12.50;99.90;;;;;;5011066;28;20003;-73
2023/04/23 06:57:53;;;;;;;;;;;12.60;99.90;;;;;;5002480;28;19960;-73
2023/04/23 07:00:23;;;;;;;;;;;12.50;99.90;;;;;;5017763;28;20353;-71
2023/04/23 07:02:49;;;;;;;;;;;12.50;99.90;;;;;;5016054;28;19909;-73
2023/04/23 07:05:16;;;;;;;;;;;12.60;99.90;;;;;;5009335;28;19971;-75
2023/04/23 07:07:42;;;;;;;;;;;12.60;99.90;;;;;;5019082;28;19916;-75
2023/04/23 07:10:08;;;;;;;;;;;12.60;99.90;;;;;;5016076;28;19916;-72
2023/04/23 07:12:35;;;;;;;;;;;12.60;99.90;;;;;;5015233;28;19913;-71
2023/04/23 07:15:01;;;;;;;;;;;12.60;99.90;;;;;;5015113;28;19959;-72
2023/04/23 07:17:27;;;;;;;;;;;12.50;99.90;;;;;;5013143;28;19913;-72
2023/04/23 07:19:53;;;;;;;;;;;12.60;99.90;;;;;;5015735;28;19978;-73
2023/04/23 07:22:19;;;;;;;;;;;12.60;99.90;;;;;;5017620;28;19953;-71
2023/04/23 07:24:44;;;;;;;;;;;12.60;99.90;;;;;;5013821;28;19925;-72
2023/04/23 07:27:10;;;;;;;;;;;12.60;99.90;;;;;;5017990;28;20418;-71
2023/04/23 07:29:36;;;;;;;;;;;12.60;99.90;;;;;;4997907;28;19914;-71
2023/04/23 07:32:02;;;;;;;;;;;12.70;99.90;;;;;;5014154;28;19909;-72
2023/04/23 07:34:28;;;;;;;;;;;12.70;99.90;;;;;;5014040;28;20945;-73
2023/04/23 07:36:55;;;;;;;;;;;12.70;99.90;;;;;;5015705;28;19995;-72
2023/04/23 07:39:20;;;;;;;;;;;12.80;99.90;;;;;;5016821;28;19909;-72
2023/04/23 07:41:46;;;;;;;;;;;12.90;99.90;;;;;;5014951;28;19943;-72
2023/04/23 07:44:12;;;;;;;;;;;12.80;99.90;;;;;;5015362;28;20945;-71
2023/04/23 07:46:38;;;;;;;;;;;12.70;99.90;;;;;;4996445;28;20282;-72
2023/04/23 07:49:03;;;;;;;;;;;12.80;99.90;;;;;;5014155;28;20275;-72
2023/04/23 07:51:30;;;;;;;;;;;13.00;99.90;;;;;;5013296;28;19913;-71
2023/04/23 07:53:57;;;;;;;;;;;13.10;99.90;;;;;;5011939;28;22107;-71
2023/04/23 07:56:23;;;;;;;;;;;13.10;99.90;;;;;;5014198;28;19928;-71
2023/04/23 07:58:49;;;;;;;;;;;13.10;99.90;;;;;;5014426;28;19921;-72
2023/04/23 08:01:15;;;;;;;;;;;13.10;99.90;;;;;;5012316;28;20259;-73
2023/04/23 08:03:41;;;;;;;;;;;13.10;99.90;;;;;;5013956;28;19944;-71
2023/04/23 08:06:11;;;;;;;;;;;13.30;99.90;;;;;;5012117;28;19921;-71
2023/04/23 08:08:36;;;;;;;;;;;13.10;99.90;;;;;;4997440;28;19913;-71
2023/04/23 08:11:02;;;;;;;;;;;13.30;99.90;;;;;;5010097;28;19924;-72
2023/04/23 08:13:28;;;;;;;;;;;13.40;99.90;;;;;;5012049;28;20273;-72
2023/04/23 08:15:54;;;;;;;;;;;13.40;99.90;;;;;;5015200;28;20412;-73
2023/04/23 08:18:20;;;;;;;;;;;13.30;99.90;;;;;;5013509;28;19914;-72
2023/04/23 08:20:48;;;;;;;;;;;13.40;99.90;;;;;;5007920;28;20385;-73
2023/04/23 08:23:14;;;;;;;;;;;13.40;99.90;;;;;;5012274;28;20483;-71
2023/04/23 08:25:40;;;;;;;;;;;13.50;99.90;;;;;;5014413;28;19917;-73
2023/04/23 08:28:05;;;;;;;;;;;13.50;99.90;;;;;;5009597;28;20360;-70
2023/04/23 08:30:32;;;;;;;;;;;13.50;99.90;;;;;;5015464;28;19932;-72
2023/04/23 08:32:59;;;;;;;;;;;13.50;99.90;;;;;;5014040;28;19913;-73
2023/04/23 08:35:24;;;;;;;;;;;13.50;99.90;;;;;;5036321;28;20015;-72
2023/04/23 08:37:50;;;;;;;;;;;13.50;99.90;;;;;;5016537;28;20028;-74
2023/04/23 08:40:15;;;;;;;;;;;13.60;99.90;;;;;;5012474;28;19940;-71
2023/04/23 08:42:50;;;;;;;;;;;13.60;99.90;;;;;;5014787;28;19908;-71
2023/04/23 08:45:16;;;;;;;;;;;13.60;99.90;;;;;;5008426;28;19918;-70
2023/04/23 08:47:59;;;;;;;;;;;13.70;99.90;;;;;;5014686;28;20434;-80
2023/04/23 08:50:26;;;;;;;;;;;13.70;99.90;;;;;;5016672;28;19920;-70
2023/04/23 08:52:53;;;;;;;;;;;13.70;99.90;;;;;;5008813;28;19941;-72
2023/04/23 08:55:20;;;;;;;;;;;13.80;99.90;;;;;;5011565;28;20463;-70
2023/04/23 08:57:46;;;;;;;;;;;13.80;99.90;;;;;;5010377;28;19924;-70
2023/04/23 09:00:12;;;;;;;;;;;13.80;99.90;;;;;;4993181;28;19909;-71
2023/04/23 09:02:42;;;;;;;;;;;13.90;99.90;;;;;;5010177;28;20389;-70
2023/04/23 09:05:08;;;;;;;;;;;14.00;99.90;;;;;;5010299;28;19913;-71
2023/04/23 09:07:34;;;;;;;;;;;14.10;99.90;;;;;;5011853;28;20324;-73
2023/04/23 09:10:04;;;;;;;;;;;14.20;99.90;;;;;;5014656;28;19954;-72
2023/04/23 09:12:30;;;;;;;;;;;14.30;99.90;;;;;;5012537;28;20482;-72
2023/04/23 09:14:56;;;;;;;;;;;14.60;99.90;;;;;;5011240;28;19918;-72
2023/04/23 09:17:23;;;;;;;;;;;14.60;99.90;;;;;;5010363;28;19963;-71
2023/04/23 09:19:54;;;;;;;;;;;14.70;99.90;;;;;;5010606;28;19913;-72
2023/04/23 09:22:38;;;;;;;;;;;14.70;99.90;;;;;;5009080;28;19917;-76
2023/04/23 09:25:04;;;;;;;;;;;14.70;99.90;;;;;;5013093;28;19912;-73
2023/04/23 09:27:30;;;;;;;;;;;14.70;99.90;;;;;;5014583;28;19928;-74
2023/04/23 09:29:58;;;;;;;;;;;14.70;99.90;;;;;;5013161;28;20293;-71
2023/04/23 09:32:31;;;;;;;;;;;14.70;99.90;;;;;;5013820;28;20358;-71
2023/04/23 09:34:57;;;;;;;;;;;14.60;99.90;;;;;;5006451;28;20540;-73
2023/04/23 09:37:25;;;;;;;;;;;14.60;99.90;;;;;;5016542;28;19985;-72
2023/04/23 09:39:52;;;;;;;;;;;14.50;99.90;;;;;;5014621;28;19918;-73
2023/04/23 09:42:22;;;;;;;;;;;14.50;99.90;;;;;;5016097;28;20008;-72
2023/04/23 09:44:54;;;;;;;;;;;14.50;99.90;;;;;;5013922;28;19909;-72
2023/04/23 09:47:20;;;;;;;;;;;14.60;99.90;;;;;;5046391;28;19956;-71
2023/04/23 09:49:46;;;;;;;;;;;14.60;99.90;;;;;;5013004;28;19952;-73
2023/04/23 09:52:12;;;;;;;;;;;14.80;99.90;;;;;;5011939;28;19913;-74
2023/04/23 09:54:37;;;;;;;;;;;14.70;99.90;;;;;;5007013;28;19914;-72
2023/04/23 09:57:07;;;;;;;;;;;14.70;99.90;;;;;;5012895;28;20392;-71
2023/04/23 09:59:35;;;;;;;;;;;14.70;99.90;;;;;;5013478;28;19921;-71
2023/04/23 10:02:01;;;;;;;;;;;14.60;99.90;;;;;;5014028;28;19924;-73
2023/04/23 10:04:27;;;;;;;;;;;14.70;99.90;;;;;;4996412;28;20494;-71
2023/04/23 10:06:54;;;;;;;;;;;14.70;99.90;;;;;;5009714;28;20092;-71
2023/04/23 10:09:23;;;;;;;;;;;14.70;99.90;;;;;;5013438;28;19909;-71
2023/04/23 10:11:58;;;;;;;;;;;14.70;99.90;;;;;;5015485;28;19951;-72
2023/04/23 10:14:25;;;;;;;;;;;14.70;99.90;;;;;;5015602;28;20462;-71
2023/04/23 10:16:52;;;;;;;;;;;14.80;99.90;;;;;;4993493;28;19921;-71
2023/04/23 10:19:24;;;;;;;;;;;14.90;99.90;;;;;;5011011;28;19920;-73
2023/04/23 10:21:53;;;;;;;;;;;15.00;99.90;;;;;;5011626;28;19917;-73
2023/04/23 10:24:21;;;;;;;;;;;15.10;99.90;;;;;;5013368;28;20001;-75
2023/04/23 10:26:48;;;;;;;;;;;15.20;99.90;;;;;;5009162;28;19921;-77
2023/04/23 10:29:17;;;;;;;;;;;15.30;99.90;;;;;;5015224;28;19952;-76
2023/04/23 10:31:44;;;;;;;;;;;15.30;99.90;;;;;;5009792;28;19963;-78
2023/04/23 10:34:10;;;;;;;;;;;15.20;99.90;;;;;;5016578;28;19909;-76
2023/04/23 10:36:37;;;;;;;;;;;15.20;99.90;;;;;;5008792;28;19918;-77
2023/04/23 10:39:07;;;;;;;;;;;15.30;99.90;;;;;;5002345;28;20004;-78
2023/04/23 10:41:35;;;;;;;;;;;15.40;99.90;;;;;;5017780;28;19916;-78
2023/04/23 10:44:02;;;;;;;;;;;15.50;99.90;;;;;;5033822;28;19945;-77
2023/04/23 10:46:29;;;;;;;;;;;15.60;99.90;;;;;;5019251;28;19967;-76
2023/04/23 10:49:09;;;;;;;;;;;15.60;99.90;;;;;;5011579;28;19920;-77
2023/04/23 10:51:36;;;;;;;;;;;15.70;99.80;;;;;;5048703;28;20016;-78
2023/04/23 10:54:02;;;;;;;;;;;15.80;99.80;;;;;;5016334;28;20631;-76
2023/04/23 10:56:29;;;;;;;;;;;15.90;99.60;;;;;;5018640;28;19909;-75
2023/04/23 10:58:54;;;;;;;;;;;16.10;99.00;;;;;;5021331;28;20381;-77
2023/04/23 11:01:23;;;;;;;;;;;16.10;98.20;;;;;;5017331;28;20121;-77
2023/04/23 11:03:50;;;;;;;;;;;16.20;97.80;;;;;;4998673;28;20321;-73
2023/04/23 11:06:42;;;;;;;;;;;16.30;97.90;;;;;;5013951;28;19940;-74
2023/04/23 11:09:26;;;;;;;;;;;16.50;97.10;;;;;;5011830;28;19913;-74
2023/04/23 11:11:53;;;;;;;;;;;17.20;96.30;;;;;;5015713;28;19925;-78
2023/04/23 11:14:19;;;;;;;;;;;18.40;93.40;;;;;;5013825;28;19917;-78
2023/04/23 11:16:44;;;;;;;;;;;19.50;90.70;;;;;;5017334;28;20361;-77
2023/04/23 11:19:14;;;;;;;;;;;20.60;82.90;;;;;;5018156;28;20373;-79
2023/04/23 11:21:56;;;;;;;;;;;22.00;78.90;;;;;;5020146;28;19919;-75
2023/04/23 11:24:22;;;;;;;;;;;22.60;69.90;;;;;;5015718;28;19929;-74
2023/04/23 11:26:50;;;;;;;;;;;24.40;65.00;;;;;;5020420;28;20435;-74
2023/04/23 11:29:17;;;;;;;;;;;25.80;59.40;;;;;;5014332;28;19920;-75
2023/04/23 11:31:42;;;;;;;;;;;25.70;57.00;;;;;;5021247;28;20446;-73
2023/04/23 11:34:08;;;;;;;;;;;26.50;54.30;;;;;;5018312;28;19916;-72
2023/04/23 11:36:34;;;;;;;;;;;26.90;52.80;;;;;;5013230;28;20032;-73
2023/04/23 11:39:02;;;;;;;;;;;27.70;50.00;;;;;;5019003;28;19913;-71
2023/04/23 11:41:29;;;;;;;;;;;27.00;49.30;;;;;;5013189;28;20387;-77
2023/04/23 11:43:57;;;;;;;;;;;26.20;50.80;;;;;;5012142;28;20400;-75
2023/04/23 11:46:23;;;;;;;;;;;25.90;52.20;;;;;;5017552;28;19924;-75
2023/04/23 11:48:49;;;;;;;;;;;26.00;51.30;;;;;;5049284;28;19917;-76
2023/04/23 11:51:15;;;;;;;;;;;25.30;51.80;;;;;;5019401;28;19913;-75
2023/04/23 11:53:45;;;;;;;;;;;24.80;52.50;;;;;;5014643;28;19917;-74
2023/04/23 11:56:11;;;;;;;;;;;24.60;53.20;;;;;;5019130;28;19993;-76
2023/04/23 11:58:36;;;;;;;;;;;24.20;53.40;;;;;;5004456;28;19958;-76
2023/04/23 12:01:02;;;;;;;;;;;23.80;53.60;;;;;;5013488;28;19913;-73
2023/04/23 12:03:29;;;;;;;;;;;23.10;55.30;;;;;;5017314;28;20019;-73
2023/04/23 12:05:57;;;;;;;;;;;23.00;55.80;;;;;;5016260;28;19948;-72
2023/04/23 12:08:23;;;;;;;;;;;23.50;55.50;;;;;;5018188;28;19973;-72
2023/04/23 12:10:48;;;;;;;;;;;23.60;55.70;;;;;;4998763;28;20079;-73
2023/04/23 12:13:16;;;;;;;;;;;23.90;54.10;;;;;;4999922;28;20289;-74
2023/04/23 12:15:45;;;;;;;;;;;24.00;52.40;;;;;;5014856;28;21635;-74
2023/04/23 12:18:11;;;;;;;;;;;23.90;54.50;;;;;;4998557;28;20039;-75
2023/04/23 12:20:38;;;;;;;;;;;24.10;52.60;;;;;;4995273;28;19917;-73
2023/04/23 12:23:05;;;;;;;;;;;23.60;54.20;;;;;;5006169;28;19909;-72
2023/04/23 12:25:34;;;;;;;;;;;24.10;53.80;;;;;;5010091;28;20399;-73
2023/04/23 12:28:02;;;;;;;;;;;24.30;52.50;;;;;;4998102;28;20586;-75
2023/04/23 12:30:28;;;;;;;;;;;24.80;51.70;;;;;;5018710;28;20337;-74
2023/04/23 12:33:00;;;;;;;;;;;24.60;51.80;;;;;;5012890;28;19987;-74
2023/04/23 12:35:38;;;;;;;;;;;24.90;51.50;;;;;;4993176;28;20470;-73
2023/04/23 12:38:04;;;;;;;;;;;24.60;51.90;;;;;;5014615;28;19916;-72
2023/04/23 12:40:30;;;;;;;;;;;24.40;52.80;;;;;;4995243;28;19913;-72
2023/04/23 12:42:55;;;;;;;;;;;24.90;51.40;;;;;;5013219;28;19909;-73
2023/04/23 12:45:21;;;;;;;;;;;25.00;51.30;;;;;;5013553;28;19991;-73
2023/04/23 12:47:46;;;;;;;;;;;25.70;50.60;;;;;;5015681;28;20031;-72
2023/04/23 12:50:12;;;;;;;;;;;25.70;49.70;;;;;;5015282;28;20349;-76
2023/04/23 12:52:38;;;;;;;;;;;25.80;49.50;;;;;;5016695;28;20384;-74
2023/04/23 12:55:05;;;;;;;;;;;26.00;49.30;;;;;;5031249;28;19914;-75
2023/04/23 12:57:30;;;;;;;;;;;25.60;49.50;;;;;;5010305;28;19952;-77
2023/04/23 12:59:56;;;;;;;;;;;25.20;49.30;;;;;;5006492;28;20523;-75
2023/04/23 13:02:22;;;;;;;;;;;24.50;50.50;;;;;;5037020;28;20056;-74
2023/04/23 13:04:48;;;;;;;;;;;24.10;51.20;;;;;;5006322;28;21304;-75
2023/04/23 13:07:14;;;;;;;;;;;24.30;52.20;;;;;;5011617;28;19909;-74
2023/04/23 13:09:41;;;;;;;;;;;24.90;50.80;;;;;;5005364;28;19916;-75
2023/04/23 13:12:06;;;;;;;;;;;25.70;50.30;;;;;;5007136;28;19917;-74
2023/04/23 13:14:32;;;;;;;;;;;26.10;48.80;;;;;;5009491;28;19963;-75
2023/04/23 13:17:01;;;;;;;;;;;25.20;49.00;;;;;;5009059;28;20371;-75
2023/04/23 13:19:26;;;;;;;;;;;24.60;50.60;;;;;;5010960;28;20262;-76
2023/04/23 13:21:52;;;;;;;;;;;24.60;51.00;;;;;;5010397;28;19932;-75
2023/04/23 13:24:18;;;;;;;;;;;23.80;51.30;;;;;;5018126;28;19913;-75
2023/04/23 13:26:43;;;;;;;;;;;23.10;52.40;;;;;;5009939;28;19909;-75
2023/04/23 13:29:09;;;;;;;;;;;22.20;54.20;;;;;;5037572;28;19909;-77
2023/04/23 13:31:35;;;;;;;;;;;21.60;56.40;;;;;;5021050;28;19912;-76
2023/04/23 13:34:01;;;;;;;;;;;21.60;56.50;;;;;;5015073;28;19909;-74
2023/04/23 13:36:27;;;;;;;;;;;21.30;56.50;;;;;;5012553;28;19966;-73
2023/04/23 13:38:53;;;;;;;;;;;21.10;57.50;;;;;;5009514;28;20347;-73
2023/04/23 13:41:18;;;;;;;;;;;21.00;57.70;;;;;;5017225;28;20583;-75
2023/04/23 13:43:44;;;;;;;;;;;21.10;58.00;;;;;;5016478;28;20292;-77
2023/04/23 13:46:10;;;;;;;;;;;22.40;56.70;;;;;;5021178;28;20008;-81
2023/04/23 13:48:35;;;;;;;;;;;23.60;53.60;;;;;;5010882;28;19913;-77
2023/04/23 13:51:01;;;;;;;;;;;24.40;52.80;;;;;;5009585;28;20392;-77
2023/04/23 13:53:27;;;;;;;;;;;24.90;51.20;;;;;;5008650;28;20517;-74
2023/04/23 13:55:53;;;;;;;;;;;25.90;49.70;;;;;;5008028;28;19929;-76
2023/04/23 13:58:19;;;;;;;;;;;26.60;48.30;;;;;;5011526;28;19912;-76
2023/04/23 14:00:45;;;;;;;;;;;25.90;48.00;;;;;;5010834;28;19917;-77
2023/04/23 14:03:11;;;;;;;;;;;24.90;49.20;;;;;;5015844;28;19978;-76
2023/04/23 14:05:37;;;;;;;;;;;25.00;48.90;;;;;;5013597;28;19917;-76
2023/04/23 14:08:04;;;;;;;;;;;23.90;51.00;;;;;;5011825;28;20003;-76
2023/04/23 14:10:30;;;;;;;;;;;23.60;51.80;;;;;;5015328;28;20356;-76
2023/04/23 14:12:56;;;;;;;;;;;23.10;52.20;;;;;;5015051;28;19917;-77